createdAt,value
2022-07-26T00:01:37.840Z,100420.00
2022-07-26T00:04:08.530Z,100431.00
2022-07-26T00:06:39.163Z,100436.00
2022-07-26T00:09:09.776Z,100432.00
2022-07-26T00:11:43.010Z,100435.00
2022-07-26T00:14:13.532Z,100458.00
2022-07-26T00:16:44.041Z,100441.00
2022-07-26T00:19:14.549Z,100432.00
2022-07-26T00:21:44.879Z,100419.00
2022-07-26T00:24:15.174Z,100430.00
2022-07-26T00:26:48.153Z,100404.00
2022-07-26T00:29:18.523Z,100401.00
2022-07-26T00:31:48.965Z,100405.00
2022-07-26T00:34:19.245Z,100421.00
2022-07-26T00:36:49.526Z,100412.00
2022-07-26T00:39:19.866Z,100406.00
2022-07-26T00:41:52.833Z,100399.00
2022-07-26T00:44:23.090Z,100404.00
2022-07-26T00:46:53.461Z,100414.00
2022-07-26T00:49:23.819Z,100419.00
2022-07-26T00:51:55.100Z,100432.00
2022-07-26T00:54:25.562Z,100422.00
2022-07-26T00:56:58.728Z,100416.00
2022-07-26T00:59:29.028Z,100405.00
2022-07-26T01:01:59.694Z,100404.00
2022-07-26T01:04:30.581Z,100396.00
2022-07-26T01:07:00.791Z,100400.00
2022-07-26T01:09:30.992Z,100408.00
2022-07-26T01:12:06.670Z,100404.00
2022-07-26T01:14:36.977Z,100403.00
2022-07-26T01:17:07.430Z,100418.00
2022-07-26T01:19:37.862Z,100422.00
2022-07-26T01:22:14.314Z,100436.00
2022-07-26T01:24:45.249Z,100441.00
2022-07-26T01:27:15.682Z,100426.00
2022-07-26T01:29:46.123Z,100428.00
2022-07-26T01:32:16.323Z,100438.00
2022-07-26T01:34:47.273Z,100436.00
2022-07-26T01:37:20.252Z,100444.00
2022-07-26T01:39:50.508Z,100447.00
2022-07-26T01:42:20.733Z,100443.00
2022-07-26T01:44:51.005Z,100443.00
2022-07-26T01:47:21.258Z,100442.00
2022-07-26T01:49:51.732Z,100436.00
2022-07-26T01:52:24.767Z,100451.00
2022-07-26T01:54:55.149Z,100464.00
2022-07-26T01:57:25.642Z,100465.00
2022-07-26T01:59:55.891Z,100469.00
2022-07-26T02:02:26.327Z,100455.00
2022-07-26T02:05:02.499Z,100453.00
2022-07-26T02:07:44.659Z,100459.00
2022-07-26T02:10:16.557Z,100460.00
2022-07-26T02:12:47.734Z,100466.00
2022-07-26T02:15:18.708Z,100468.00
2022-07-26T02:17:48.906Z,100465.00
2022-07-26T02:20:19.209Z,100461.00
2022-07-26T02:22:52.107Z,100466.00
2022-07-26T02:25:22.489Z,100470.00
2022-07-26T02:27:52.686Z,100467.00
2022-07-26T02:30:23.180Z,100460.00
2022-07-26T02:32:53.452Z,100451.00
2022-07-26T02:35:23.987Z,100461.00
2022-07-26T02:37:56.857Z,100458.00
2022-07-26T02:40:27.351Z,100467.00
2022-07-26T02:42:57.508Z,100471.00
2022-07-26T02:45:28.086Z,100464.00
2022-07-26T02:47:59.249Z,100459.00
2022-07-26T02:50:31.722Z,100470.00
2022-07-26T02:53:04.660Z,100471.00
2022-07-26T02:55:35.148Z,100463.00
2022-07-26T02:58:05.529Z,100471.00
2022-07-26T03:00:36.106Z,100465.00
2022-07-26T03:03:06.448Z,100460.00
2022-07-26T03:05:36.717Z,100457.00
2022-07-26T03:08:10.508Z,100463.00
2022-07-26T03:10:41.767Z,100459.00
2022-07-26T03:13:12.392Z,100452.00
2022-07-26T03:15:42.939Z,100462.00
2022-07-26T03:18:13.243Z,100464.00
2022-07-26T03:20:45.116Z,100462.00
2022-07-26T03:23:18.050Z,100459.00
2022-07-26T03:25:48.333Z,100461.00
2022-07-26T03:28:19.663Z,100450.00
2022-07-26T03:30:50.091Z,100456.00
2022-07-26T03:33:20.416Z,100450.00
2022-07-26T03:35:50.715Z,100445.00
2022-07-26T03:38:23.725Z,100447.00
2022-07-26T03:40:54.331Z,100445.00
2022-07-26T03:43:24.711Z,100442.00
2022-07-26T03:45:55.720Z,100448.00
2022-07-26T03:48:26.128Z,100457.00
2022-07-26T03:50:56.570Z,100465.00
2022-07-26T03:53:29.519Z,100470.00
2022-07-26T03:56:12.373Z,100458.00
2022-07-26T03:58:43.857Z,100458.00
2022-07-26T04:01:14.257Z,100462.00
2022-07-26T04:03:47.766Z,100451.00
2022-07-26T04:06:18.885Z,100460.00
2022-07-26T04:08:56.242Z,100463.00
2022-07-26T04:11:28.707Z,100457.00
2022-07-26T04:13:59.448Z,100460.00
2022-07-26T04:16:30.298Z,100470.00
2022-07-26T04:19:01.015Z,100460.00
2022-07-26T04:21:31.456Z,100470.00
2022-07-26T04:24:04.835Z,100463.00
2022-07-26T04:26:35.516Z,100469.00
2022-07-26T04:29:06.107Z,100466.00
2022-07-26T04:31:37.877Z,100468.00
2022-07-26T04:34:08.553Z,100470.00
2022-07-26T04:36:39.115Z,100476.00
2022-07-26T04:39:11.860Z,100468.00
2022-07-26T04:41:42.209Z,100468.00
2022-07-26T04:44:12.514Z,100477.00
2022-07-26T04:46:44.987Z,100474.00
2022-07-26T04:49:16.620Z,100478.00
2022-07-26T04:51:46.936Z,100474.00
2022-07-26T04:54:23.009Z,100483.00
2022-07-26T04:56:53.643Z,100485.00
2022-07-26T04:59:23.975Z,100487.00
2022-07-26T05:01:54.258Z,100493.00
2022-07-26T05:04:24.613Z,100501.00
2022-07-26T05:06:54.849Z,100496.00
2022-07-26T05:09:27.806Z,100494.00
2022-07-26T05:11:58.192Z,100496.00
2022-07-26T05:14:28.563Z,100498.00
2022-07-26T05:16:59.013Z,100501.00
2022-07-26T05:19:39.264Z,100503.00
2022-07-26T05:22:09.570Z,100507.00
2022-07-26T05:24:42.427Z,100506.00
2022-07-26T05:27:12.684Z,100514.00
2022-07-26T05:29:43.028Z,100510.00
2022-07-26T05:32:16.213Z,100516.00
2022-07-26T05:34:46.536Z,100520.00
2022-07-26T05:37:18.336Z,100519.00
2022-07-26T05:39:51.171Z,100522.00
2022-07-26T05:42:21.538Z,100531.00
2022-07-26T05:44:51.823Z,100529.00
2022-07-26T05:47:22.466Z,100529.00
2022-07-26T05:49:53.400Z,100531.00
2022-07-26T05:52:24.685Z,100534.00
2022-07-26T05:54:57.853Z,100532.00
2022-07-26T05:57:28.794Z,100542.00
2022-07-26T05:59:59.350Z,100540.00
2022-07-26T06:02:30.095Z,100537.00
2022-07-26T06:05:00.712Z,100533.00
2022-07-26T06:07:31.215Z,100543.00
2022-07-26T06:10:04.291Z,100529.00
2022-07-26T06:12:34.793Z,100539.00
2022-07-26T06:15:05.436Z,100539.00
2022-07-26T06:17:46.777Z,100540.00
2022-07-26T06:20:17.351Z,100536.00
2022-07-26T06:22:47.875Z,100539.00
2022-07-26T06:25:21.326Z,100542.00
2022-07-26T06:27:51.813Z,100546.00
2022-07-26T06:30:22.674Z,100546.00
2022-07-26T06:32:53.171Z,100539.00
2022-07-26T06:35:24.389Z,100544.00
2022-07-26T06:37:55.080Z,100550.00
2022-07-26T06:40:28.354Z,100547.00
2022-07-26T06:43:04.087Z,100551.00
2022-07-26T06:45:35.500Z,100546.00
2022-07-26T06:48:06.763Z,100553.00
2022-07-26T06:50:37.202Z,100548.00
2022-07-26T06:53:07.656Z,100550.00
2022-07-26T06:55:40.542Z,100548.00
2022-07-26T06:58:13.003Z,100543.00
2022-07-26T07:00:44.257Z,100544.00
2022-07-26T07:03:15.064Z,100547.00
2022-07-26T07:05:50.022Z,100552.00
2022-07-26T07:08:23.410Z,100539.00
2022-07-26T07:10:56.935Z,100552.00
2022-07-26T07:13:27.347Z,100559.00
2022-07-26T07:15:58.010Z,100553.00
2022-07-26T07:18:28.350Z,100555.00
2022-07-26T07:20:58.695Z,100549.00
2022-07-26T07:23:29.083Z,100557.00
2022-07-26T07:26:02.205Z,100562.00
2022-07-26T07:28:34.273Z,100551.00
2022-07-26T07:31:04.851Z,100560.00
2022-07-26T07:33:43.607Z,100560.00
2022-07-26T07:36:23.406Z,100562.00
2022-07-26T07:38:53.726Z,100567.00
2022-07-26T07:41:26.525Z,100572.00
2022-07-26T07:43:56.740Z,100576.00
2022-07-26T07:46:27.066Z,100570.00
2022-07-26T07:48:59.682Z,100574.00
2022-07-26T07:51:30.922Z,100574.00
2022-07-26T07:54:05.186Z,100568.00
2022-07-26T07:56:38.751Z,100569.00
2022-07-26T07:59:10.147Z,100565.00
2022-07-26T08:01:41.098Z,100571.00
2022-07-26T08:04:11.940Z,100569.00
2022-07-26T08:06:42.099Z,100565.00
2022-07-26T08:09:20.982Z,100566.00
2022-07-26T08:11:54.129Z,100567.00
2022-07-26T08:14:24.444Z,100561.00
2022-07-26T08:16:54.680Z,100574.00
2022-07-26T08:19:41.465Z,100568.00
2022-07-26T08:22:13.305Z,100568.00
2022-07-26T08:24:45.815Z,100565.00
2022-07-26T08:27:18.938Z,100578.00
2022-07-26T08:29:49.197Z,100578.00
2022-07-26T08:32:19.513Z,100589.00
2022-07-26T08:34:49.889Z,100578.00
2022-07-26T08:37:20.217Z,100572.00
2022-07-26T08:39:51.437Z,100576.00
2022-07-26T08:42:25.505Z,100566.00
2022-07-26T08:44:55.766Z,100568.00
2022-07-26T08:47:37.722Z,100576.00
2022-07-26T08:50:12.326Z,100579.00
2022-07-26T08:52:44.020Z,100595.00
2022-07-26T08:55:17.603Z,100593.00
2022-07-26T08:57:50.553Z,100592.00
2022-07-26T09:00:25.022Z,100593.00
2022-07-26T09:02:56.194Z,100591.00
2022-07-26T09:05:34.116Z,100593.00
2022-07-26T09:08:26.015Z,100605.00
2022-07-26T09:11:00.221Z,100603.00
2022-07-26T09:13:54.455Z,100596.00
2022-07-26T09:16:24.837Z,100603.00
2022-07-26T09:18:56.154Z,100611.00
2022-07-26T09:21:36.231Z,100612.00
2022-07-26T09:24:07.184Z,100606.00
2022-07-26T09:26:37.573Z,100614.00
2022-07-26T09:29:14.052Z,100611.00
2022-07-26T09:31:44.892Z,100612.00
2022-07-26T09:34:15.365Z,100607.00
2022-07-26T09:36:55.329Z,100608.00
2022-07-26T09:39:33.470Z,100606.00
2022-07-26T09:42:27.272Z,100611.00
2022-07-26T09:45:01.669Z,100609.00
2022-07-26T09:47:42.921Z,100601.00
2022-07-26T09:50:15.942Z,100602.00
2022-07-26T09:53:07.498Z,100599.00
2022-07-26T09:55:44.674Z,100597.00
2022-07-26T09:58:17.579Z,100598.00
2022-07-26T10:00:50.974Z,100601.00
2022-07-26T10:03:21.167Z,100605.00
2022-07-26T10:05:51.525Z,100600.00
2022-07-26T10:08:22.619Z,100601.00
2022-07-26T10:10:58.751Z,100598.00
2022-07-26T10:13:31.050Z,100597.00
2022-07-26T10:16:05.157Z,100593.00
2022-07-26T10:18:50.358Z,100597.00
2022-07-26T10:21:26.778Z,100595.00
2022-07-26T10:23:59.673Z,100593.00
2022-07-26T10:26:45.773Z,100592.00
2022-07-26T10:29:30.839Z,100592.00
2022-07-26T10:32:23.018Z,100598.00
2022-07-26T10:34:53.520Z,100593.00
2022-07-26T10:37:32.620Z,100595.00
2022-07-26T10:40:25.644Z,100599.00
2022-07-26T10:42:56.001Z,100591.00
2022-07-26T10:45:27.337Z,100604.00
2022-07-26T10:48:17.349Z,100603.00
2022-07-26T10:50:50.099Z,100606.00
2022-07-26T10:53:26.289Z,100599.00
2022-07-26T10:55:58.510Z,100603.00
2022-07-26T10:58:30.432Z,100603.00
2022-07-26T11:01:04.481Z,100601.00
2022-07-26T11:03:45.140Z,100597.00
2022-07-26T11:06:17.955Z,100606.00
2022-07-26T11:08:51.149Z,100603.00
2022-07-26T11:11:33.021Z,100606.00
2022-07-26T11:14:15.650Z,100607.00
2022-07-26T11:16:50.186Z,100596.00
2022-07-26T11:19:26.209Z,100612.00
2022-07-26T11:21:58.971Z,100605.00
2022-07-26T11:24:29.968Z,100601.00
2022-07-26T11:27:06.262Z,100612.00
2022-07-26T11:29:40.562Z,100615.00
2022-07-26T11:32:20.492Z,100601.00
2022-07-26T11:35:02.001Z,100618.00
2022-07-26T11:37:32.311Z,100598.00
2022-07-26T11:40:02.547Z,100608.00
2022-07-26T11:42:32.961Z,100600.00
2022-07-26T11:45:03.416Z,100596.00
2022-07-26T11:47:33.784Z,100598.00
2022-07-26T11:50:18.641Z,100602.00
2022-07-26T11:52:53.290Z,100600.00
2022-07-26T11:55:30.639Z,100603.00
2022-07-26T11:58:09.058Z,100609.00
2022-07-26T12:00:40.104Z,100601.00
2022-07-26T12:03:10.564Z,100600.00
2022-07-26T12:05:44.569Z,100606.00
2022-07-26T12:08:14.913Z,100607.00
2022-07-26T12:10:45.133Z,100609.00
2022-07-26T12:13:17.345Z,100605.00
2022-07-26T12:15:53.161Z,100602.00
2022-07-26T12:18:34.196Z,100599.00
2022-07-26T12:21:11.395Z,100613.00
2022-07-26T12:23:48.545Z,100607.00
2022-07-26T12:26:24.713Z,100611.00
2022-07-26T12:28:55.207Z,100610.00
2022-07-26T12:31:30.429Z,100616.00
2022-07-26T12:34:01.891Z,100614.00
2022-07-26T12:36:37.362Z,100621.00
2022-07-26T12:39:08.233Z,100627.00
2022-07-26T12:41:41.543Z,100627.00
2022-07-26T12:44:13.416Z,100632.00
2022-07-26T12:46:45.021Z,100647.00
2022-07-26T12:49:15.608Z,100654.00
2022-07-26T12:51:48.519Z,100655.00
2022-07-26T12:54:18.933Z,100676.00
2022-07-26T12:56:49.149Z,100681.00
2022-07-26T12:59:19.477Z,100691.00
2022-07-26T13:01:50.094Z,100707.00
2022-07-26T13:04:20.976Z,100715.00
2022-07-26T13:06:54.181Z,100731.00
2022-07-26T13:09:24.515Z,100730.00
2022-07-26T13:11:54.972Z,100746.00
2022-07-26T13:14:25.407Z,100748.00
2022-07-26T13:16:56.245Z,100740.00
2022-07-26T13:19:26.983Z,100738.00
2022-07-26T13:22:00.741Z,100745.00
2022-07-26T13:24:33.895Z,100748.00
2022-07-26T13:27:06.508Z,100749.00
2022-07-26T13:29:38.000Z,100744.00
2022-07-26T13:32:09.672Z,100737.00
2022-07-26T13:34:40.067Z,100735.00
2022-07-26T13:37:15.304Z,100740.00
2022-07-26T13:39:45.869Z,100737.00
2022-07-26T13:42:17.552Z,100745.00
2022-07-26T13:44:48.405Z,100744.00
2022-07-26T13:47:19.385Z,100752.00
2022-07-26T13:49:49.900Z,100743.00
2022-07-26T13:52:23.028Z,100744.00
2022-07-26T13:54:53.538Z,100753.00
2022-07-26T13:57:24.332Z,100746.00
2022-07-26T14:00:17.556Z,100750.00
2022-07-26T14:02:48.097Z,100755.00
2022-07-26T14:05:18.589Z,100742.00
2022-07-26T14:07:51.956Z,100741.00
2022-07-26T14:10:23.087Z,100744.00
2022-07-26T14:12:54.391Z,100739.00
2022-07-26T14:15:24.968Z,100741.00
2022-07-26T14:17:55.485Z,100743.00
2022-07-26T14:20:26.126Z,100735.00
2022-07-26T14:23:00.025Z,100724.00
2022-07-26T14:25:32.033Z,100738.00
2022-07-26T14:28:03.552Z,100734.00
2022-07-26T14:30:33.821Z,100734.00
2022-07-26T14:33:05.179Z,100744.00
2022-07-26T14:35:35.458Z,100752.00
2022-07-26T14:38:08.427Z,100749.00
2022-07-26T14:40:39.741Z,100744.00
2022-07-26T14:43:10.079Z,100750.00
2022-07-26T14:45:40.390Z,100747.00
2022-07-26T14:48:10.687Z,100747.00
2022-07-26T14:51:07.174Z,100738.00
2022-07-26T14:53:33.979Z,100746.00
2022-07-26T14:56:04.303Z,100740.00
2022-07-26T14:58:34.640Z,100739.00
2022-07-26T15:01:05.433Z,100745.00
2022-07-26T15:03:37.201Z,100746.00
2022-07-26T15:06:08.023Z,100748.00
2022-07-26T15:08:41.038Z,100743.00
2022-07-26T15:11:11.754Z,100757.00
2022-07-26T15:13:42.086Z,100766.00
2022-07-26T15:16:12.631Z,100753.00
2022-07-26T15:18:43.040Z,100752.00
2022-07-26T15:21:13.333Z,100760.00
2022-07-26T15:23:46.127Z,100756.00
2022-07-26T15:26:16.481Z,100765.00
2022-07-26T15:28:46.946Z,100759.00
2022-07-26T15:31:17.235Z,100755.00
2022-07-26T15:33:47.529Z,100762.00
2022-07-26T15:36:17.751Z,100760.00
2022-07-26T15:38:50.797Z,100744.00
2022-07-26T15:41:21.102Z,100748.00
2022-07-26T15:43:51.876Z,100746.00
2022-07-26T15:46:22.381Z,100745.00
2022-07-26T15:48:55.235Z,100756.00
2022-07-26T15:51:26.538Z,100744.00
2022-07-26T15:53:59.385Z,100751.00
2022-07-26T15:56:29.684Z,100752.00
2022-07-26T15:59:00.507Z,100760.00
2022-07-26T16:01:33.078Z,100760.00
2022-07-26T16:04:05.241Z,100754.00
2022-07-26T16:06:36.082Z,100752.00
2022-07-26T16:09:18.680Z,100758.00
2022-07-26T16:11:50.906Z,100753.00
2022-07-26T16:14:21.914Z,100754.00
2022-07-26T16:16:52.453Z,100753.00
2022-07-26T16:19:22.990Z,100745.00
2022-07-26T16:21:53.432Z,100750.00
2022-07-26T16:24:26.545Z,100751.00
2022-07-26T16:26:57.049Z,100748.00
2022-07-26T16:29:27.479Z,100751.00
2022-07-26T16:31:58.004Z,100751.00
2022-07-26T16:34:30.289Z,100748.00
2022-07-26T16:37:00.673Z,100755.00
2022-07-26T16:39:33.970Z,100750.00
2022-07-26T16:42:07.205Z,100750.00
2022-07-26T16:44:39.484Z,100759.00
2022-07-26T16:47:10.394Z,100762.00
2022-07-26T16:49:40.699Z,100768.00
2022-07-26T16:52:11.417Z,100765.00
2022-07-26T16:54:45.166Z,100763.00
2022-07-26T16:57:15.794Z,100751.00
2022-07-26T16:59:46.422Z,100758.00
2022-07-26T17:02:17.182Z,100752.00
2022-07-26T17:04:47.822Z,100754.00
2022-07-26T17:07:26.379Z,100761.00
2022-07-26T17:10:00.061Z,100751.00
2022-07-26T17:12:30.732Z,100760.00
2022-07-26T17:15:02.574Z,100763.00
2022-07-26T17:17:33.212Z,100752.00
2022-07-26T17:20:04.069Z,100750.00
2022-07-26T17:22:34.570Z,100754.00
2022-07-26T17:25:09.926Z,100761.00
2022-07-26T17:27:40.285Z,100758.00
2022-07-26T17:30:12.802Z,100765.00
2022-07-26T17:32:43.294Z,100762.00
2022-07-26T17:35:13.746Z,100763.00
2022-07-26T17:37:44.410Z,100768.00
2022-07-26T17:40:17.813Z,100766.00
2022-07-26T17:42:48.942Z,100775.00
2022-07-26T17:45:19.506Z,100775.00
2022-07-26T17:47:50.108Z,100772.00
2022-07-26T17:50:37.710Z,100778.00
2022-07-26T17:53:08.387Z,100777.00
2022-07-26T17:55:41.552Z,100769.00
2022-07-26T17:58:12.150Z,100769.00
2022-07-26T18:00:43.090Z,100772.00
2022-07-26T18:03:13.697Z,100769.00
2022-07-26T18:05:44.238Z,100761.00
2022-07-26T18:08:14.722Z,100767.00
2022-07-26T18:10:51.268Z,100772.00
2022-07-26T18:13:21.911Z,100780.00
2022-07-26T18:15:52.627Z,100780.00
2022-07-26T18:18:23.581Z,100783.00
2022-07-26T18:20:54.066Z,100787.00
2022-07-26T18:23:24.582Z,100780.00
2022-07-26T18:25:58.175Z,100787.00
2022-07-26T18:28:29.281Z,100778.00
2022-07-26T18:30:59.798Z,100789.00
2022-07-26T18:33:31.674Z,100787.00
2022-07-26T18:36:02.205Z,100785.00
2022-07-26T18:38:32.440Z,100793.00
2022-07-26T18:41:06.137Z,100800.00
2022-07-26T18:43:37.182Z,100799.00
2022-07-26T18:46:07.575Z,100803.00
2022-07-26T18:48:38.202Z,100803.00
2022-07-26T18:51:12.181Z,100803.00
2022-07-26T18:53:43.828Z,100810.00
2022-07-26T18:56:16.756Z,100812.00
2022-07-26T18:58:47.286Z,100812.00
2022-07-26T19:01:18.656Z,100818.00
2022-07-26T19:03:49.103Z,100829.00
2022-07-26T19:06:19.568Z,100827.00
2022-07-26T19:08:49.873Z,100819.00
2022-07-26T19:11:22.832Z,100827.00
2022-07-26T19:13:52.975Z,100837.00
2022-07-26T19:16:23.357Z,100829.00
2022-07-26T19:18:57.263Z,100831.00
2022-07-26T19:21:27.936Z,100831.00
2022-07-26T19:23:58.578Z,100826.00
2022-07-26T19:26:32.284Z,100838.00
2022-07-26T19:29:02.616Z,100844.00
2022-07-26T19:31:32.962Z,100838.00
2022-07-26T19:34:03.511Z,100844.00
2022-07-26T19:36:34.064Z,100836.00
2022-07-26T19:39:04.422Z,100849.00
2022-07-26T19:41:37.635Z,100859.00
2022-07-26T19:44:08.664Z,100856.00
2022-07-26T19:46:40.271Z,100858.00
2022-07-26T19:49:11.395Z,100862.00
2022-07-26T19:51:42.576Z,100856.00
2022-07-26T19:54:13.024Z,100856.00
2022-07-26T19:56:45.972Z,100856.00
2022-07-26T19:59:22.635Z,100870.00
2022-07-26T20:01:58.315Z,100861.00
2022-07-26T20:04:29.121Z,100871.00
2022-07-26T20:06:59.414Z,100875.00
2022-07-26T20:09:30.009Z,100877.00
2022-07-26T20:12:03.600Z,100883.00
2022-07-26T20:14:33.845Z,100874.00
2022-07-26T20:17:04.181Z,100874.00
2022-07-26T20:19:42.707Z,100876.00
2022-07-26T20:22:13.396Z,100877.00
2022-07-26T20:24:43.730Z,100884.00
2022-07-26T20:27:16.751Z,100890.00
2022-07-26T20:29:47.083Z,100887.00
2022-07-26T20:32:17.554Z,100891.00
2022-07-26T20:34:47.925Z,100892.00
2022-07-26T20:37:18.513Z,100885.00
2022-07-26T20:39:48.915Z,100892.00
2022-07-26T20:42:22.124Z,100896.00
2022-07-26T20:44:52.918Z,100892.00
2022-07-26T20:47:23.584Z,100897.00
2022-07-26T20:49:53.978Z,100890.00
2022-07-26T20:52:28.916Z,100894.00
2022-07-26T20:54:59.305Z,100892.00
2022-07-26T20:57:32.360Z,100895.00
2022-07-26T21:00:02.648Z,100907.00
2022-07-26T21:02:33.014Z,100912.00
2022-07-26T21:05:03.680Z,100908.00
2022-07-26T21:07:58.818Z,100909.00
2022-07-26T21:10:24.934Z,100907.00
2022-07-26T21:13:00.485Z,100906.00
2022-07-26T21:15:31.069Z,100909.00
2022-07-26T21:18:01.879Z,100908.00
2022-07-26T21:20:32.554Z,100909.00
2022-07-26T21:23:16.053Z,100904.00
2022-07-26T21:25:47.432Z,100916.00
2022-07-26T21:28:20.358Z,100922.00
2022-07-26T21:30:54.323Z,100922.00
2022-07-26T21:33:24.790Z,100924.00
2022-07-26T21:35:55.100Z,100929.00
2022-07-26T21:38:25.460Z,100925.00
2022-07-26T21:40:55.783Z,100931.00
2022-07-26T21:43:29.053Z,100925.00
2022-07-26T21:45:59.444Z,100933.00
2022-07-26T21:48:30.159Z,100950.00
2022-07-26T21:51:00.664Z,100951.00
2022-07-26T21:53:30.983Z,100955.00
2022-07-26T21:56:01.516Z,100953.00
2022-07-26T21:58:36.537Z,100955.00
2022-07-26T22:01:07.746Z,100956.00
2022-07-26T22:03:39.803Z,100967.00
2022-07-26T22:06:11.759Z,100969.00
2022-07-26T22:08:42.734Z,100969.00
2022-07-26T22:11:13.181Z,100970.00
2022-07-26T22:13:46.162Z,100967.00
2022-07-26T22:16:16.474Z,100974.00
2022-07-26T22:18:46.868Z,100981.00
2022-07-26T22:21:17.711Z,100973.00
2022-07-26T22:23:47.991Z,100978.00
2022-07-26T22:26:20.820Z,100985.00
2022-07-26T22:28:53.761Z,100979.00
2022-07-26T22:31:24.302Z,100988.00
2022-07-26T22:33:54.609Z,100988.00
2022-07-26T22:36:24.777Z,100980.00
2022-07-26T22:38:55.094Z,100991.00
2022-07-26T22:41:25.374Z,100980.00
2022-07-26T22:43:58.241Z,100984.00
2022-07-26T22:46:29.634Z,100985.00
2022-07-26T22:49:00.071Z,100985.00
2022-07-26T22:51:30.640Z,100988.00
2022-07-26T22:54:00.935Z,100991.00
2022-07-26T22:56:31.601Z,100998.00
2022-07-26T22:59:04.718Z,100997.00
2022-07-26T23:01:35.061Z,100996.00
2022-07-26T23:04:05.402Z,101006.00
2022-07-26T23:06:37.054Z,100999.00
2022-07-26T23:09:09.021Z,101006.00
2022-07-26T23:11:39.585Z,101017.00
2022-07-26T23:14:12.480Z,101011.00
2022-07-26T23:16:43.018Z,101024.00
2022-07-26T23:19:13.967Z,101021.00
2022-07-26T23:21:44.545Z,101015.00
2022-07-26T23:24:14.853Z,101019.00
2022-07-26T23:26:45.145Z,101015.00
2022-07-26T23:29:18.066Z,101023.00
2022-07-26T23:31:48.372Z,101022.00
2022-07-26T23:34:18.776Z,101020.00
2022-07-26T23:36:49.119Z,101015.00
2022-07-26T23:39:19.499Z,101017.00
2022-07-26T23:41:49.770Z,101020.00
2022-07-26T23:44:22.586Z,101013.00
2022-07-26T23:46:52.897Z,101019.00
2022-07-26T23:49:23.383Z,101007.00
2022-07-26T23:51:53.725Z,101012.00
2022-07-26T23:54:24.293Z,101008.00
2022-07-26T23:56:54.526Z,101005.00
2022-07-26T23:59:27.498Z,101014.00
